createdAt,value
2022-08-07T00:00:56.741Z,63.78
2022-08-07T00:02:37.373Z,64.09
2022-08-07T00:02:56.739Z,63.17
2022-08-07T00:03:55.842Z,63.78
2022-08-07T00:04:56.068Z,63.58
2022-08-07T00:05:55.680Z,63.37
2022-08-07T00:06:55.687Z,63.37
2022-08-07T00:08:00.303Z,62.97
2022-08-07T00:08:57.711Z,63.07
2022-08-07T00:10:19.033Z,62.16
2022-08-07T00:10:58.310Z,63.17
2022-08-07T00:11:58.908Z,62.26
2022-08-07T00:13:00.209Z,62.56
2022-08-07T00:13:56.585Z,62.26
2022-08-07T00:14:55.582Z,61.95
2022-08-07T00:15:55.578Z,62.97
2022-08-07T00:16:55.776Z,61.93
2022-08-07T00:17:55.763Z,62.56
2022-08-07T00:18:55.539Z,62.56
2022-08-07T00:20:02.552Z,61.44
2022-08-07T00:20:56.756Z,62.56
2022-08-07T00:22:02.069Z,61.55
2022-08-07T00:22:56.536Z,63.51
2022-08-07T00:23:55.608Z,63.51
2022-08-07T00:24:55.547Z,63.30
2022-08-07T00:26:00.168Z,63.20
2022-08-07T00:27:06.206Z,63.30
2022-08-07T00:27:56.738Z,62.97
2022-08-07T00:28:57.011Z,63.10
2022-08-07T00:29:55.453Z,63.28
2022-08-07T00:30:55.436Z,63.30
2022-08-07T00:31:55.406Z,63.20
2022-08-07T00:32:55.427Z,63.10
2022-08-07T00:33:55.429Z,62.59
2022-08-07T00:34:55.428Z,63.20
2022-08-07T00:35:55.378Z,63.30
2022-08-07T00:36:55.401Z,63.40
2022-08-07T00:37:55.354Z,63.20
2022-08-07T00:38:55.404Z,63.60
2022-08-07T00:39:55.396Z,63.00
2022-08-07T00:40:55.357Z,63.20
2022-08-07T00:42:02.236Z,63.10
2022-08-07T00:42:56.378Z,63.10
2022-08-07T00:44:01.535Z,63.23
2022-08-07T00:44:56.393Z,63.84
2022-08-07T00:45:55.300Z,63.60
2022-08-07T00:46:55.324Z,63.71
2022-08-07T00:48:09.912Z,63.60
2022-08-07T00:48:56.376Z,63.57
2022-08-07T00:50:19.863Z,64.81
2022-08-07T00:50:56.313Z,65.25
2022-08-07T00:51:57.247Z,66.00
2022-08-07T00:52:55.248Z,66.61
2022-08-07T00:53:56.039Z,66.91
2022-08-07T00:54:55.313Z,66.50
2022-08-07T00:56:02.170Z,65.80
2022-08-07T00:56:56.262Z,66.07
2022-08-07T00:57:56.260Z,65.66
2022-08-07T00:58:55.192Z,65.22
2022-08-07T00:59:55.247Z,65.53
2022-08-07T01:00:55.215Z,65.22
2022-08-07T01:01:57.799Z,64.51
2022-08-07T01:02:55.175Z,64.18
2022-08-07T01:04:00.123Z,64.81
2022-08-07T01:04:58.375Z,64.79
2022-08-07T01:05:55.174Z,64.18
2022-08-07T01:06:55.272Z,64.79
2022-08-07T01:07:55.280Z,64.58
2022-08-07T01:08:55.559Z,64.28
2022-08-07T01:10:06.226Z,64.58
2022-08-07T01:10:56.607Z,64.18
2022-08-07T01:12:10.025Z,64.18
2022-08-07T01:12:56.169Z,63.97
2022-08-07T01:13:56.090Z,63.67
2022-08-07T01:14:57.133Z,63.67
2022-08-07T01:16:04.992Z,64.20
2022-08-07T01:16:56.120Z,64.28
2022-08-07T01:17:55.136Z,63.87
2022-08-07T01:18:55.078Z,65.33
2022-08-07T01:19:55.071Z,65.69
2022-08-07T01:20:57.277Z,67.18
2022-08-07T01:21:55.449Z,68.54
2022-08-07T01:23:09.113Z,69.79
2022-08-07T01:23:56.017Z,70.00
2022-08-07T01:24:55.013Z,70.72
2022-08-07T01:25:56.466Z,69.86
2022-08-07T01:26:56.022Z,68.64
2022-08-07T01:27:55.018Z,68.61
2022-08-07T01:28:54.954Z,68.57
2022-08-07T01:29:54.992Z,67.66
2022-08-07T01:30:54.993Z,67.15
2022-08-07T01:31:54.954Z,66.71
2022-08-07T01:32:54.960Z,66.10
2022-08-07T01:33:55.740Z,66.71
2022-08-07T01:34:54.950Z,65.89
2022-08-07T01:36:06.040Z,65.77
2022-08-07T01:36:58.232Z,65.66
2022-08-07T01:37:54.959Z,65.46
2022-08-07T01:38:54.918Z,65.77
2022-08-07T01:39:54.964Z,66.74
2022-08-07T01:40:54.878Z,68.64
2022-08-07T01:42:07.493Z,69.35
2022-08-07T01:42:58.457Z,70.23
2022-08-07T01:43:54.871Z,71.50
2022-08-07T01:44:54.864Z,72.75
2022-08-07T01:45:54.857Z,73.16
2022-08-07T01:46:54.815Z,73.50
2022-08-07T01:48:18.338Z,74.56
2022-08-07T01:48:55.876Z,74.87
2022-08-07T01:49:54.947Z,75.27
2022-08-07T01:50:55.632Z,74.63
2022-08-07T01:52:02.364Z,73.88
2022-08-07T01:52:55.803Z,72.72
2022-08-07T01:54:12.684Z,72.00
2022-08-07T01:54:55.932Z,72.38
2022-08-07T01:55:54.778Z,70.61
2022-08-07T01:56:55.159Z,70.61
2022-08-07T01:58:05.573Z,70.61
2022-08-07T01:58:55.803Z,70.95
2022-08-07T01:59:54.785Z,71.22
2022-08-07T02:00:58.050Z,69.49
2022-08-07T02:01:59.956Z,69.66
2022-08-07T02:03:18.743Z,68.54
2022-08-07T02:03:55.754Z,68.44
2022-08-07T02:04:56.141Z,68.91
2022-08-07T02:06:00.087Z,68.40
2022-08-07T02:06:55.749Z,68.30
2022-08-07T02:07:54.672Z,68.51
2022-08-07T02:08:54.672Z,68.84
2022-08-07T02:09:58.755Z,68.74
2022-08-07T02:10:54.973Z,70.00
2022-08-07T02:12:04.110Z,70.40
2022-08-07T02:12:55.652Z,70.40
2022-08-07T02:13:57.697Z,70.00
2022-08-07T02:14:55.618Z,69.59
2022-08-07T02:15:54.623Z,68.95
2022-08-07T02:16:54.636Z,68.74
2022-08-07T02:17:54.756Z,68.61
2022-08-07T02:18:54.607Z,68.74
2022-08-07T02:20:07.569Z,67.69
2022-08-07T02:20:57.350Z,67.82
2022-08-07T02:21:55.562Z,67.93
2022-08-07T02:22:55.116Z,68.61
2022-08-07T02:23:54.559Z,68.74
2022-08-07T02:24:54.568Z,67.79
2022-08-07T02:26:32.022Z,68.30
2022-08-07T02:26:55.560Z,68.30
2022-08-07T02:27:54.517Z,68.20
2022-08-07T02:28:54.538Z,68.67
2022-08-07T02:29:55.100Z,69.73
2022-08-07T02:30:54.496Z,70.88
2022-08-07T02:31:54.653Z,71.63
2022-08-07T02:33:03.698Z,72.75
2022-08-07T02:34:01.847Z,73.64
2022-08-07T02:34:55.503Z,74.43
2022-08-07T02:36:29.816Z,73.44
2022-08-07T02:36:55.427Z,74.69
2022-08-07T02:37:54.437Z,75.52
2022-08-07T02:38:56.677Z,75.62
2022-08-07T02:40:11.789Z,75.21
2022-08-07T02:40:55.736Z,75.52
2022-08-07T02:41:56.531Z,75.48
2022-08-07T02:42:54.396Z,74.56
2022-08-07T02:43:54.406Z,74.76
2022-08-07T02:44:54.449Z,74.56
2022-08-07T02:46:00.669Z,74.15
2022-08-07T02:46:55.385Z,73.13
2022-08-07T02:47:54.384Z,72.82
2022-08-07T02:48:54.914Z,73.20
2022-08-07T02:49:57.930Z,72.65
2022-08-07T02:50:55.392Z,72.11
2022-08-07T02:51:54.379Z,71.15
2022-08-07T02:52:54.350Z,70.95
2022-08-07T02:53:55.342Z,70.03
2022-08-07T02:54:54.306Z,69.69
2022-08-07T02:56:03.567Z,68.47
2022-08-07T02:56:55.274Z,68.74
2022-08-07T02:57:54.306Z,67.82
2022-08-07T02:58:55.196Z,67.93
2022-08-07T03:00:00.776Z,67.72
2022-08-07T03:00:55.316Z,68.03
2022-08-07T03:01:55.284Z,67.72
2022-08-07T03:02:55.572Z,67.72
2022-08-07T03:03:54.268Z,67.21
2022-08-07T03:04:54.228Z,67.21
2022-08-07T03:05:54.242Z,66.70
2022-08-07T03:06:54.262Z,67.82
2022-08-07T03:08:07.608Z,68.57
2022-08-07T03:08:55.207Z,68.67
2022-08-07T03:09:54.265Z,68.67
2022-08-07T03:10:54.219Z,68.98
2022-08-07T03:11:57.736Z,68.80
2022-08-07T03:12:54.178Z,70.17
2022-08-07T03:13:57.569Z,70.75
2022-08-07T03:14:54.186Z,71.77
2022-08-07T03:15:54.139Z,72.17
2022-08-07T03:16:54.143Z,71.66
2022-08-07T03:17:54.417Z,72.07
2022-08-07T03:18:55.165Z,72.55
2022-08-07T03:19:54.755Z,71.83
2022-08-07T03:20:54.132Z,71.87
2022-08-07T03:21:54.100Z,72.31
2022-08-07T03:22:54.101Z,73.33
2022-08-07T03:24:20.897Z,73.36
2022-08-07T03:24:55.125Z,74.60
2022-08-07T03:25:58.268Z,73.44
2022-08-07T03:26:58.748Z,73.54
2022-08-07T03:27:59.457Z,73.33
2022-08-07T03:28:55.084Z,72.62
2022-08-07T03:29:54.082Z,72.48
2022-08-07T03:30:54.083Z,71.97
2022-08-07T03:31:54.041Z,71.63
2022-08-07T03:32:59.229Z,71.73
2022-08-07T03:33:55.036Z,72.38
2022-08-07T03:35:16.851Z,72.58
2022-08-07T03:35:55.084Z,72.38
2022-08-07T03:36:54.042Z,72.82
2022-08-07T03:37:55.346Z,74.43
2022-08-07T03:38:54.016Z,75.04
2022-08-07T03:40:13.332Z,74.84
2022-08-07T03:40:57.647Z,74.29
2022-08-07T03:41:54.004Z,73.54
2022-08-07T03:42:53.950Z,73.23
2022-08-07T03:43:57.156Z,72.41
2022-08-07T03:44:58.040Z,72.99
2022-08-07T03:45:53.974Z,72.58
2022-08-07T03:47:13.678Z,72.17
2022-08-07T03:47:54.942Z,71.33
2022-08-07T03:49:03.085Z,70.81
2022-08-07T03:49:54.938Z,70.61
2022-08-07T03:50:57.992Z,71.09
2022-08-07T03:52:00.955Z,70.27
2022-08-07T03:52:54.920Z,69.56
2022-08-07T03:54:33.244Z,69.76
2022-08-07T03:54:57.364Z,70.23
2022-08-07T03:56:03.700Z,68.50
2022-08-07T03:57:03.359Z,69.21
2022-08-07T03:58:34.774Z,69.21
2022-08-07T03:59:08.093Z,68.60
2022-08-07T04:00:02.815Z,68.91
2022-08-07T04:00:58.232Z,68.47
2022-08-07T04:01:56.455Z,67.96
2022-08-07T04:02:56.717Z,67.85
2022-08-07T04:03:55.367Z,67.96
2022-08-07T04:04:53.827Z,68.06
2022-08-07T04:05:58.738Z,68.26
2022-08-07T04:06:54.832Z,68.50
2022-08-07T04:07:53.835Z,68.50
2022-08-07T04:08:53.832Z,68.19
2022-08-07T04:09:53.805Z,68.40
2022-08-07T04:12:15.346Z,68.06
2022-08-07T04:12:26.487Z,68.47
2022-08-07T04:12:54.755Z,68.67
2022-08-07T04:14:10.745Z,68.16
2022-08-07T04:14:54.742Z,67.01
2022-08-07T04:15:53.799Z,67.45
2022-08-07T04:16:58.155Z,66.94
2022-08-07T04:18:58.697Z,66.63
2022-08-07T04:18:59.829Z,67.04
2022-08-07T04:19:55.256Z,67.85
2022-08-07T04:20:54.610Z,67.04
2022-08-07T04:22:05.384Z,67.41
2022-08-07T04:23:01.348Z,67.45
2022-08-07T04:24:07.095Z,68.06
2022-08-07T04:24:54.709Z,67.45
2022-08-07T04:25:53.690Z,67.01
2022-08-07T04:26:53.699Z,67.21
2022-08-07T04:28:00.501Z,67.14
2022-08-07T04:28:54.642Z,66.80
2022-08-07T04:30:02.054Z,66.70
2022-08-07T04:30:57.076Z,66.39
2022-08-07T04:32:03.084Z,66.50
2022-08-07T04:32:58.659Z,67.99
2022-08-07T04:33:54.956Z,70.10
2022-08-07T04:34:53.629Z,71.22
2022-08-07T04:35:54.065Z,71.15
2022-08-07T04:36:53.615Z,71.59
2022-08-07T04:38:02.942Z,72.92
2022-08-07T04:38:54.600Z,72.92
2022-08-07T04:39:53.660Z,72.28
2022-08-07T04:40:56.804Z,71.19
2022-08-07T04:41:53.563Z,70.44
2022-08-07T04:42:53.653Z,68.23
2022-08-07T04:44:14.602Z,66.85
2022-08-07T04:45:03.004Z,65.43
2022-08-07T04:46:01.049Z,63.16
2022-08-07T04:47:04.515Z,62.62
2022-08-07T04:47:58.600Z,62.79
2022-08-07T04:48:55.512Z,60.97
2022-08-07T04:50:03.537Z,60.81
2022-08-07T04:50:54.502Z,59.86
2022-08-07T04:51:53.479Z,60.33
2022-08-07T04:52:53.452Z,61.04
2022-08-07T04:54:05.826Z,62.29
2022-08-07T04:54:54.471Z,61.68
2022-08-07T04:58:12.160Z,61.71
2022-08-07T04:58:15.730Z,61.75
2022-08-07T04:58:31.630Z,60.30
2022-08-07T04:59:17.118Z,59.38
2022-08-07T05:00:11.065Z,57.93
2022-08-07T05:00:54.488Z,56.28
2022-08-07T05:01:53.489Z,56.08
2022-08-07T05:02:53.404Z,55.35
2022-08-07T05:04:07.272Z,55.52
2022-08-07T05:04:54.417Z,55.52
2022-08-07T05:05:57.315Z,55.29
2022-08-07T05:06:54.382Z,55.07
2022-08-07T05:07:55.608Z,53.72
2022-08-07T05:09:00.958Z,53.60
2022-08-07T05:09:54.341Z,52.29
2022-08-07T05:10:58.403Z,53.32
2022-08-07T05:11:58.165Z,53.83
2022-08-07T05:12:58.625Z,53.32
2022-08-07T05:14:51.992Z,53.85
2022-08-07T05:15:04.599Z,53.98
2022-08-07T05:15:55.364Z,53.75
2022-08-07T05:16:53.304Z,54.53
2022-08-07T05:17:53.389Z,54.53
2022-08-07T05:18:53.312Z,55.41
2022-08-07T05:19:53.323Z,53.75
2022-08-07T05:20:53.580Z,51.79
2022-08-07T05:22:00.713Z,52.87
2022-08-07T05:22:54.264Z,50.85
2022-08-07T05:23:54.317Z,52.17
2022-08-07T05:24:53.278Z,50.23
2022-08-07T05:26:11.610Z,50.23
2022-08-07T05:26:54.233Z,51.41
2022-08-07T05:28:03.450Z,49.73
2022-08-07T05:28:54.285Z,50.25
2022-08-07T05:29:53.649Z,50.45
2022-08-07T05:30:53.309Z,50.33
2022-08-07T05:31:53.241Z,50.23
2022-08-07T05:32:53.222Z,51.71
2022-08-07T05:34:04.518Z,53.20
2022-08-07T05:34:54.238Z,51.66
2022-08-07T05:35:53.215Z,51.43
2022-08-07T05:36:53.221Z,51.41
2022-08-07T05:38:08.687Z,51.49
2022-08-07T05:38:59.824Z,51.29
2022-08-07T05:40:05.914Z,51.09
2022-08-07T05:40:54.203Z,51.99
2022-08-07T05:42:01.587Z,52.51
2022-08-07T05:42:55.893Z,52.51
2022-08-07T05:44:11.971Z,53.32
2022-08-07T05:45:14.571Z,53.32
2022-08-07T05:45:56.560Z,53.25
2022-08-07T05:46:53.133Z,52.34
2022-08-07T05:48:02.569Z,52.14
2022-08-07T05:48:59.387Z,53.67
2022-08-07T05:49:54.107Z,54.79
2022-08-07T05:50:53.146Z,53.27
2022-08-07T05:51:53.120Z,53.90
2022-08-07T05:52:53.071Z,53.50
2022-08-07T05:54:09.679Z,55.31
2022-08-07T05:54:58.512Z,54.81
2022-08-07T05:56:02.254Z,54.41
2022-08-07T05:56:54.083Z,53.67
2022-08-07T05:57:53.073Z,53.88
2022-08-07T05:58:53.117Z,53.70
2022-08-07T05:59:57.506Z,54.10
2022-08-07T06:00:54.032Z,55.21
2022-08-07T06:01:53.079Z,54.99
2022-08-07T06:02:53.064Z,54.99
2022-08-07T06:03:53.816Z,53.25
2022-08-07T06:04:54.007Z,54.63
2022-08-07T06:05:56.575Z,54.93
2022-08-07T06:06:56.678Z,56.14
2022-08-07T06:08:14.648Z,53.09
2022-08-07T06:08:53.982Z,53.09
2022-08-07T06:10:04.193Z,53.42
2022-08-07T06:10:54.741Z,53.72
2022-08-07T06:11:52.999Z,53.32
2022-08-07T06:12:52.977Z,53.42
2022-08-07T06:14:12.853Z,55.54
2022-08-07T06:14:53.965Z,55.61
2022-08-07T06:15:52.922Z,53.70
2022-08-07T06:16:56.429Z,53.30
2022-08-07T06:17:55.240Z,53.77
2022-08-07T06:18:55.743Z,54.38
2022-08-07T06:20:04.000Z,54.91
2022-08-07T06:22:15.416Z,54.80
2022-08-07T06:22:15.936Z,57.24
2022-08-07T06:23:02.383Z,58.01
2022-08-07T06:24:52.406Z,59.17
2022-08-07T06:24:58.519Z,58.26
2022-08-07T06:25:54.504Z,58.84
2022-08-07T06:26:52.872Z,58.74
2022-08-07T06:28:00.516Z,57.73
2022-08-07T06:28:53.858Z,57.81
2022-08-07T06:29:52.872Z,59.11
2022-08-07T06:30:52.845Z,58.44
2022-08-07T06:31:52.827Z,58.34
2022-08-07T06:32:52.821Z,58.84
2022-08-07T06:33:52.817Z,60.15
2022-08-07T06:34:53.906Z,59.27
2022-08-07T06:36:12.272Z,58.26
2022-08-07T06:36:53.824Z,61.18
2022-08-07T06:37:53.001Z,59.90
2022-08-07T06:38:59.042Z,59.90
2022-08-07T06:40:16.464Z,58.56
2022-08-07T06:40:53.799Z,58.26
2022-08-07T06:42:02.318Z,60.75
2022-08-07T06:42:53.777Z,59.62
2022-08-07T06:43:59.526Z,59.69
2022-08-07T06:44:53.759Z,60.19
2022-08-07T06:45:56.270Z,58.68
2022-08-07T06:47:09.876Z,60.06
2022-08-07T06:47:58.700Z,58.65
2022-08-07T06:48:53.755Z,58.65
2022-08-07T06:49:58.874Z,56.95
2022-08-07T06:50:54.719Z,57.68
2022-08-07T06:51:53.905Z,58.86
2022-08-07T06:52:53.748Z,57.45
2022-08-07T06:55:29.790Z,58.55
2022-08-07T06:55:32.878Z,55.74
2022-08-07T06:56:00.836Z,52.80
2022-08-07T06:56:53.724Z,51.76
2022-08-07T06:57:56.640Z,52.34
2022-08-07T07:00:13.436Z,53.37
2022-08-07T07:00:13.649Z,53.12
2022-08-07T07:00:53.674Z,53.45
2022-08-07T07:01:52.838Z,56.20
2022-08-07T07:02:57.511Z,58.71
2022-08-07T07:03:58.861Z,55.29
2022-08-07T07:04:54.965Z,55.89
2022-08-07T07:06:03.017Z,54.46
2022-08-07T07:07:00.473Z,55.13
2022-08-07T07:07:59.840Z,54.91
2022-08-07T07:08:53.594Z,53.34
2022-08-07T07:09:52.574Z,53.62
2022-08-07T07:10:56.730Z,52.49
2022-08-07T07:12:08.309Z,51.59
2022-08-07T07:12:53.768Z,51.17
2022-08-07T07:13:58.388Z,50.76
2022-08-07T07:14:53.604Z,50.76
2022-08-07T07:15:52.617Z,51.17
2022-08-07T07:16:53.669Z,48.58
2022-08-07T07:17:52.572Z,48.80
2022-08-07T07:18:52.533Z,51.61
2022-08-07T07:19:57.877Z,51.89
2022-08-07T07:20:53.516Z,51.87
2022-08-07T07:22:05.070Z,50.84
2022-08-07T07:24:10.937Z,49.23
2022-08-07T07:24:10.937Z,47.00
2022-08-07T07:25:02.602Z,50.05
2022-08-07T07:26:35.369Z,51.34
2022-08-07T07:26:53.474Z,48.70
2022-08-07T07:27:56.167Z,49.58
2022-08-07T07:29:57.008Z,49.02
2022-08-07T07:30:08.738Z,50.61
2022-08-07T07:30:53.471Z,48.86
2022-08-07T07:31:52.451Z,49.13
2022-08-07T07:32:52.458Z,48.05
2022-08-07T07:33:56.904Z,48.70
2022-08-07T07:34:53.452Z,48.10
2022-08-07T07:36:04.707Z,48.55
2022-08-07T07:36:54.219Z,50.33
2022-08-07T07:38:02.432Z,50.60
2022-08-07T07:38:54.422Z,50.05
2022-08-07T07:39:55.220Z,50.33
2022-08-07T07:40:52.404Z,50.89
2022-08-07T07:42:09.059Z,49.22
2022-08-07T07:42:54.336Z,50.78
2022-08-07T07:44:17.028Z,53.50
2022-08-07T07:44:53.485Z,50.33
2022-08-07T07:46:53.262Z,50.21
2022-08-07T07:46:57.309Z,49.83
2022-08-07T07:47:53.582Z,50.03
2022-08-07T07:48:59.980Z,50.53
2022-08-07T07:50:33.819Z,49.83
2022-08-07T07:50:53.368Z,51.99
2022-08-07T07:51:58.010Z,49.16
2022-08-07T07:52:53.323Z,49.04
2022-08-07T07:53:52.710Z,48.63
2022-08-07T07:54:52.355Z,47.45
2022-08-07T07:55:54.897Z,49.26
2022-08-07T07:56:53.312Z,48.38
2022-08-07T07:57:54.097Z,48.08
2022-08-07T07:58:53.289Z,47.97
2022-08-07T07:59:53.962Z,48.93
2022-08-07T08:00:54.066Z,49.53
2022-08-07T08:02:02.430Z,49.63
2022-08-07T08:03:04.740Z,49.22
2022-08-07T08:04:10.389Z,49.80
2022-08-07T08:04:53.377Z,49.83
2022-08-07T08:05:54.987Z,49.43
2022-08-07T08:06:53.213Z,49.78
2022-08-07T08:08:00.830Z,48.08
2022-08-07T08:08:53.271Z,48.05
2022-08-07T08:10:05.366Z,46.61
2022-08-07T08:10:53.210Z,46.38
2022-08-07T08:12:01.585Z,47.56
2022-08-07T08:12:59.973Z,47.42
2022-08-07T08:13:55.796Z,46.42
2022-08-07T08:14:52.188Z,46.42
2022-08-07T08:15:59.214Z,44.09
2022-08-07T08:16:53.218Z,46.46
2022-08-07T08:17:57.913Z,45.88
2022-08-07T08:18:53.187Z,46.86
2022-08-07T08:20:18.026Z,44.76
2022-08-07T08:20:54.013Z,45.10
2022-08-07T08:21:55.950Z,46.33
2022-08-07T08:22:55.690Z,47.55
2022-08-07T08:23:53.111Z,47.77
2022-08-07T08:24:57.135Z,47.58
2022-08-07T08:25:54.477Z,48.86
2022-08-07T08:26:52.133Z,46.23
2022-08-07T08:27:56.531Z,48.01
2022-08-07T08:28:53.943Z,46.38
2022-08-07T08:29:54.405Z,47.94
2022-08-07T08:30:55.665Z,46.42
2022-08-07T08:31:58.643Z,45.79
2022-08-07T08:32:53.514Z,44.21
2022-08-07T08:33:55.442Z,45.09
2022-08-07T08:34:53.073Z,44.17
2022-08-07T08:35:52.084Z,44.23
2022-08-07T08:36:52.064Z,42.18
2022-08-07T08:38:01.445Z,44.09
2022-08-07T08:38:53.035Z,43.04
2022-08-07T08:39:54.870Z,44.70
2022-08-07T08:40:53.082Z,44.27
2022-08-07T08:41:57.587Z,42.73
2022-08-07T08:42:52.998Z,41.61
2022-08-07T08:43:59.190Z,42.33
2022-08-07T08:44:52.997Z,43.91
2022-08-07T08:45:59.476Z,43.74
2022-08-07T08:46:52.967Z,43.85
2022-08-07T08:47:54.716Z,44.54
2022-08-07T08:48:51.952Z,44.42
2022-08-07T08:50:04.764Z,44.20
2022-08-07T08:50:52.995Z,42.99
2022-08-07T08:52:13.677Z,43.67
2022-08-07T08:52:54.293Z,44.53
2022-08-07T08:53:51.968Z,42.99
2022-08-07T08:54:51.952Z,41.09
2022-08-07T08:55:55.184Z,42.37
2022-08-07T08:56:52.884Z,41.77
2022-08-07T08:57:51.899Z,42.59
2022-08-07T08:58:54.538Z,42.87
2022-08-07T08:59:51.930Z,42.55
2022-08-07T09:00:51.882Z,40.14
2022-08-07T09:01:52.225Z,41.55
2022-08-07T09:02:53.078Z,43.09
2022-08-07T09:03:52.862Z,44.79
2022-08-07T09:04:51.865Z,43.05
2022-08-07T09:05:51.888Z,42.93
2022-08-07T09:06:51.868Z,42.93
2022-08-07T09:07:57.553Z,41.74
2022-08-07T09:08:52.827Z,42.81
2022-08-07T09:09:56.749Z,40.64
2022-08-07T09:10:52.808Z,42.03
2022-08-07T09:11:56.157Z,43.41
2022-08-07T09:12:53.587Z,40.50
2022-08-07T09:13:51.852Z,40.38
2022-08-07T09:14:58.599Z,40.44
2022-08-07T09:16:22.816Z,41.74
2022-08-07T09:16:52.771Z,43.19
2022-08-07T09:17:59.515Z,41.88
2022-08-07T09:18:53.444Z,40.06
2022-08-07T09:19:54.937Z,40.06
2022-08-07T09:20:58.312Z,39.78
2022-08-07T09:22:10.122Z,39.88
2022-08-07T09:24:34.079Z,42.93
2022-08-07T09:24:53.721Z,39.86
2022-08-07T09:24:59.072Z,43.09
2022-08-07T09:25:54.289Z,40.81
2022-08-07T09:26:51.715Z,41.97
2022-08-07T09:27:59.740Z,39.16
2022-08-07T09:30:01.206Z,38.86
2022-08-07T09:30:06.239Z,39.46
2022-08-07T09:30:54.872Z,38.50
2022-08-07T09:31:52.672Z,39.42
2022-08-07T09:32:51.651Z,40.00
2022-08-07T09:33:56.982Z,39.60
2022-08-07T09:34:54.065Z,39.10
2022-08-07T09:36:02.738Z,41.06
2022-08-07T09:36:52.659Z,39.34
2022-08-07T09:37:54.120Z,37.05
2022-08-07T09:38:53.780Z,38.84
2022-08-07T09:39:57.744Z,39.10
2022-08-07T09:40:52.613Z,36.99
2022-08-07T09:41:59.166Z,39.08
2022-08-07T09:42:52.617Z,38.56
2022-08-07T09:44:06.000Z,37.43
2022-08-07T09:47:25.582Z,37.04
2022-08-07T09:47:27.298Z,38.71
2022-08-07T09:47:49.712Z,37.12
2022-08-07T09:48:01.524Z,37.00
2022-08-07T09:50:00.406Z,34.99
2022-08-07T09:50:04.049Z,36.58
2022-08-07T09:50:52.587Z,35.47
2022-08-07T09:52:15.482Z,35.66
2022-08-07T09:52:52.546Z,36.87
2022-08-07T09:53:57.033Z,36.27
2022-08-07T09:54:53.574Z,36.87
2022-08-07T09:56:04.702Z,35.54
2022-08-07T09:56:52.557Z,35.14
2022-08-07T09:57:51.552Z,35.13
2022-08-07T09:58:51.494Z,35.01
2022-08-07T10:00:00.842Z,35.52
2022-08-07T10:00:52.453Z,36.21
2022-08-07T10:01:54.382Z,34.81
2022-08-07T10:02:55.830Z,34.08
2022-08-07T10:04:06.247Z,34.86
2022-08-07T10:04:53.022Z,33.75
2022-08-07T10:06:00.040Z,34.15
2022-08-07T10:06:55.707Z,33.04
2022-08-07T10:07:53.179Z,33.04
2022-08-07T10:08:52.445Z,32.97
2022-08-07T10:09:59.041Z,33.75
2022-08-07T10:12:00.301Z,36.02
2022-08-07T10:12:53.023Z,34.81
2022-08-07T10:14:00.458Z,34.13
2022-08-07T10:14:55.324Z,34.43
2022-08-07T10:15:51.375Z,35.79
2022-08-07T10:16:51.382Z,33.69
2022-08-07T10:18:00.941Z,32.99
2022-08-07T10:18:52.382Z,33.87
2022-08-07T10:19:51.387Z,34.28
2022-08-07T10:20:51.359Z,34.78
2022-08-07T10:22:16.031Z,33.57
2022-08-07T10:22:52.433Z,33.67
2022-08-07T10:24:06.584Z,34.01
2022-08-07T10:24:52.343Z,33.62
2022-08-07T10:25:53.012Z,33.80
2022-08-07T10:26:52.928Z,35.27
2022-08-07T10:27:51.668Z,32.78
2022-08-07T10:28:51.301Z,33.55
2022-08-07T10:29:51.638Z,32.76
2022-08-07T10:30:51.299Z,32.59
2022-08-07T10:31:51.253Z,32.75
2022-08-07T10:32:53.634Z,33.26
2022-08-07T10:34:06.264Z,33.85
2022-08-07T10:34:52.953Z,32.93
2022-08-07T10:35:57.156Z,33.15
2022-08-07T10:36:52.250Z,32.77
2022-08-07T10:38:21.120Z,34.88
2022-08-07T10:38:52.576Z,35.05
2022-08-07T10:40:02.595Z,34.23
2022-08-07T10:40:52.239Z,32.81
2022-08-07T10:41:54.560Z,32.90
2022-08-07T10:42:52.202Z,32.79
2022-08-07T10:43:51.212Z,31.90
2022-08-07T10:44:52.223Z,31.91
2022-08-07T10:45:58.415Z,31.71
2022-08-07T10:46:52.190Z,33.29
2022-08-07T10:47:54.469Z,32.69
2022-08-07T10:48:51.229Z,32.93
2022-08-07T10:49:51.792Z,32.23
2022-08-07T10:50:51.198Z,31.71
2022-08-07T10:52:02.014Z,33.48
2022-08-07T10:52:52.127Z,32.18
2022-08-07T10:53:51.195Z,31.17
2022-08-07T10:54:53.470Z,30.44
2022-08-07T10:55:53.358Z,31.04
2022-08-07T10:56:51.166Z,31.07
2022-08-07T10:57:51.674Z,32.49
2022-08-07T10:58:59.484Z,32.53
2022-08-07T10:59:52.097Z,33.70
2022-08-07T11:00:56.453Z,32.38
2022-08-07T11:02:05.005Z,32.08
2022-08-07T11:02:53.666Z,32.31
2022-08-07T11:03:55.152Z,31.81
2022-08-07T11:04:52.109Z,31.99
2022-08-07T11:05:51.388Z,32.20
2022-08-07T11:06:51.044Z,32.99
2022-08-07T11:08:00.543Z,31.94
2022-08-07T11:08:52.043Z,32.57
2022-08-07T11:10:08.553Z,33.55
2022-08-07T11:10:57.906Z,32.53
2022-08-07T11:11:53.011Z,32.71
2022-08-07T11:13:02.080Z,33.39
2022-08-07T11:14:43.504Z,31.58
2022-08-07T11:14:57.494Z,32.12
2022-08-07T11:15:54.465Z,33.44
2022-08-07T11:16:54.626Z,32.90
2022-08-07T11:17:53.802Z,33.81
2022-08-07T11:18:51.832Z,32.86
2022-08-07T11:19:50.993Z,32.75
2022-08-07T11:20:51.017Z,32.65
2022-08-07T11:21:50.935Z,32.74
2022-08-07T11:22:51.026Z,31.43
2022-08-07T11:23:50.977Z,32.59
2022-08-07T11:24:51.910Z,30.69
2022-08-07T11:25:50.929Z,32.06
2022-08-07T11:26:50.903Z,30.69
2022-08-07T11:28:02.387Z,29.93
2022-08-07T11:28:55.723Z,32.03
2022-08-07T11:30:10.024Z,32.09
2022-08-07T11:30:52.866Z,31.30
2022-08-07T11:31:51.841Z,30.63
2022-08-07T11:32:52.841Z,30.85
2022-08-07T11:33:58.697Z,32.34
2022-08-07T11:34:51.977Z,31.74
2022-08-07T11:35:59.661Z,32.26
2022-08-07T11:36:51.907Z,32.95
2022-08-07T11:38:09.958Z,33.72
2022-08-07T11:38:51.877Z,33.60
2022-08-07T11:39:59.361Z,32.08
2022-08-07T11:40:51.892Z,30.66
2022-08-07T11:42:02.259Z,31.15
2022-08-07T11:42:51.805Z,30.87
2022-08-07T11:44:10.942Z,32.26
2022-08-07T11:44:52.283Z,32.21
2022-08-07T11:45:53.706Z,31.90
2022-08-07T11:46:50.767Z,31.78
2022-08-07T11:47:56.035Z,30.62
2022-08-07T11:49:27.847Z,31.73
2022-08-07T11:50:30.360Z,32.79
2022-08-07T11:50:58.018Z,30.12
2022-08-07T11:51:51.824Z,31.03
2022-08-07T11:52:50.810Z,31.63
2022-08-07T11:54:01.677Z,32.81
2022-08-07T11:54:55.048Z,33.07
2022-08-07T11:56:25.715Z,31.10
2022-08-07T11:56:52.421Z,31.41
2022-08-07T11:58:00.293Z,31.09
2022-08-07T11:58:51.715Z,30.97
2022-08-07T12:00:12.090Z,31.15
2022-08-07T12:01:02.595Z,31.13
2022-08-07T12:01:59.171Z,31.92
2022-08-07T12:02:52.534Z,30.93
2022-08-07T12:03:50.767Z,29.83
2022-08-07T12:04:50.645Z,30.15
2022-08-07T12:05:50.698Z,30.74
2022-08-07T12:07:01.002Z,30.65
2022-08-07T12:07:53.395Z,31.24
2022-08-07T12:08:52.486Z,30.74
2022-08-07T12:09:50.619Z,30.55
2022-08-07T12:11:00.707Z,30.63
2022-08-07T12:12:09.534Z,29.03
2022-08-07T12:12:51.613Z,28.15
2022-08-07T12:13:50.732Z,28.88
2022-08-07T12:14:55.333Z,29.96
2022-08-07T12:16:06.117Z,31.05
2022-08-07T12:16:51.579Z,30.11
2022-08-07T12:17:59.856Z,31.00
2022-08-07T12:18:51.581Z,31.20
2022-08-07T12:20:05.390Z,30.72
2022-08-07T12:20:51.622Z,31.02
2022-08-07T12:22:36.171Z,30.22
2022-08-07T12:22:58.293Z,30.16
2022-08-07T12:24:06.956Z,30.85
2022-08-07T12:24:52.445Z,31.53
2022-08-07T12:26:06.251Z,30.41
2022-08-07T12:26:51.568Z,29.99
2022-08-07T12:28:05.770Z,31.30
2022-08-07T12:28:53.000Z,29.90
2022-08-07T12:29:52.489Z,30.08
2022-08-07T12:30:53.186Z,30.55
2022-08-07T12:32:01.627Z,31.84
2022-08-07T12:32:51.494Z,29.36
2022-08-07T12:34:00.623Z,30.33
2022-08-07T12:34:53.395Z,30.13
2022-08-07T12:35:58.123Z,30.02
2022-08-07T12:36:51.518Z,28.32
2022-08-07T12:38:09.379Z,30.60
2022-08-07T12:38:57.428Z,29.14
2022-08-07T12:39:51.774Z,30.94
2022-08-07T12:40:50.853Z,30.26
2022-08-07T12:41:51.925Z,30.77
2022-08-07T12:42:55.078Z,30.46
2022-08-07T12:44:03.357Z,31.67
2022-08-07T12:44:51.461Z,30.96
2022-08-07T12:45:52.614Z,32.05
2022-08-07T12:46:50.910Z,30.18
2022-08-07T12:47:50.458Z,30.47
2022-08-07T12:48:52.807Z,30.68
2022-08-07T12:49:53.002Z,32.54
2022-08-07T12:50:50.418Z,30.35
2022-08-07T12:52:11.903Z,28.85
2022-08-07T12:52:53.001Z,29.83
2022-08-07T12:54:24.152Z,28.85